createdAt,value
2017-07-23T00:00:57.894Z,18.74
2017-07-23T00:02:08.189Z,18.76
2017-07-23T00:03:18.100Z,18.74
2017-07-23T00:04:28.382Z,18.73
2017-07-23T00:05:38.675Z,18.74
2017-07-23T00:06:48.333Z,18.74
2017-07-23T00:07:58.624Z,18.71
2017-07-23T00:09:08.850Z,18.78
2017-07-23T00:10:19.136Z,18.7
2017-07-23T00:11:29.405Z,18.68
2017-07-23T00:12:39.674Z,18.68
2017-07-23T00:13:49.639Z,18.68
2017-07-23T00:14:59.870Z,18.67
2017-07-23T00:16:10.168Z,18.67
2017-07-23T00:17:20.456Z,18.61
2017-07-23T00:18:30.740Z,18.61
2017-07-23T00:19:41.053Z,18.6
2017-07-23T00:20:51.269Z,18.6
2017-07-23T00:22:01.569Z,18.61
2017-07-23T00:23:11.860Z,18.58
2017-07-23T00:24:22.135Z,18.57
2017-07-23T00:25:31.801Z,18.6
2017-07-23T00:26:42.039Z,18.58
2017-07-23T00:27:52.329Z,18.55
2017-07-23T00:29:02.616Z,18.58
2017-07-23T00:30:12.907Z,18.52
2017-07-23T00:31:23.174Z,18.53
2017-07-23T00:32:33.410Z,18.61
2017-07-23T00:33:43.692Z,18.57
2017-07-23T00:34:53.977Z,18.61
2017-07-23T00:36:04.255Z,18.6
2017-07-23T00:37:14.226Z,18.63
2017-07-23T00:38:24.757Z,18.63
2017-07-23T00:39:35.039Z,18.67
2017-07-23T00:40:45.011Z,18.6
2017-07-23T00:41:54.989Z,18.58
2017-07-23T00:43:05.257Z,18.64
2017-07-23T00:44:15.779Z,18.57
2017-07-23T00:45:26.040Z,18.55
2017-07-23T00:46:36.014Z,18.66
2017-07-23T00:47:45.977Z,18.58
2017-07-23T00:48:56.267Z,18.58
2017-07-23T00:50:06.494Z,18.61
2017-07-23T00:51:16.770Z,18.7
2017-07-23T00:52:26.428Z,18.71
2017-07-23T00:53:36.713Z,18.64
2017-07-23T00:54:46.700Z,18.58
2017-07-23T00:55:56.909Z,18.55
2017-07-23T00:57:06.873Z,18.58
2017-07-23T00:58:17.149Z,18.61
2017-07-23T00:59:27.421Z,18.53
2017-07-23T01:00:37.696Z,18.55
2017-07-23T01:01:48.222Z,18.58
2017-07-23T01:02:58.502Z,18.51
2017-07-23T01:04:08.480Z,18.43
2017-07-23T01:05:18.451Z,18.41
2017-07-23T01:06:28.437Z,18.41
2017-07-23T01:07:38.656Z,18.42
2017-07-23T01:08:48.934Z,18.26
2017-07-23T01:09:59.435Z,18.28
2017-07-23T01:11:09.415Z,18.27
2017-07-23T01:12:19.694Z,18.28
2017-07-23T01:13:30.221Z,18.24
2017-07-23T01:14:40.502Z,18.16
2017-07-23T01:15:50.807Z,18.27
2017-07-23T01:17:01.079Z,18.23
2017-07-23T01:18:11.369Z,18.13
2017-07-23T01:19:21.909Z,18.12
2017-07-23T01:20:32.180Z,18.11
2017-07-23T01:21:41.843Z,18.16
2017-07-23T01:22:52.127Z,18.11
2017-07-23T01:24:02.407Z,18.03
2017-07-23T01:25:12.974Z,18.13
2017-07-23T01:26:22.942Z,18.11
2017-07-23T01:27:32.901Z,18.03
2017-07-23T01:28:43.210Z,18.09
2017-07-23T01:29:53.177Z,18.12
2017-07-23T01:31:03.714Z,18.16
2017-07-23T01:32:13.691Z,18.18
2017-07-23T01:33:23.646Z,18.13
2017-07-23T01:34:33.947Z,18.12
2017-07-23T01:35:44.219Z,18.15
2017-07-23T01:36:54.747Z,18.09
2017-07-23T01:38:04.705Z,18.11
2017-07-23T01:39:14.988Z,18.13
2017-07-23T01:40:25.286Z,18.05
2017-07-23T01:41:35.567Z,18.11
2017-07-23T01:42:45.811Z,18.09
2017-07-23T01:43:56.092Z,18.03
2017-07-23T01:45:05.743Z,18.02
2017-07-23T01:46:15.700Z,17.98
2017-07-23T01:47:25.666Z,18.02
2017-07-23T01:48:35.906Z,18.03
2017-07-23T01:49:46.199Z,18.06
2017-07-23T01:50:56.468Z,18.09
2017-07-23T01:52:06.764Z,18
2017-07-23T01:53:17.029Z,17.98
2017-07-23T01:54:27.544Z,17.98
2017-07-23T01:55:37.190Z,18.02
2017-07-23T01:56:47.149Z,18.02
2017-07-23T01:57:57.139Z,17.97
2017-07-23T01:59:07.418Z,18.03
2017-07-23T02:00:17.945Z,18.09
2017-07-23T02:01:28.201Z,18.03
2017-07-23T02:02:38.196Z,18.15
2017-07-23T02:03:48.474Z,18.05
2017-07-23T02:04:58.769Z,18.03
2017-07-23T02:06:09.366Z,18.05
2017-07-23T02:07:19.639Z,18.02
2017-07-23T02:08:29.907Z,18
2017-07-23T02:09:39.558Z,18
2017-07-23T02:10:49.828Z,18
2017-07-23T02:12:00.367Z,18.06
2017-07-23T02:13:10.657Z,17.98
2017-07-23T02:14:20.945Z,17.98
2017-07-23T02:15:31.232Z,18
2017-07-23T02:16:41.516Z,18
2017-07-23T02:17:52.046Z,18.03
2017-07-23T02:19:02.312Z,18
2017-07-23T02:20:12.601Z,17.87
2017-07-23T02:21:22.918Z,17.87
2017-07-23T02:22:32.564Z,17.87
2017-07-23T02:23:42.775Z,17.91
2017-07-23T02:24:53.068Z,17.79
2017-07-23T02:26:03.349Z,17.78
2017-07-23T02:27:13.624Z,17.8
2017-07-23T02:28:23.910Z,17.79
2017-07-23T02:29:34.436Z,17.71
2017-07-23T02:30:44.709Z,17.76
2017-07-23T02:31:54.708Z,17.69
2017-07-23T02:33:05.001Z,17.73
2017-07-23T02:34:15.382Z,17.76
2017-07-23T02:35:25.915Z,17.78
2017-07-23T02:36:35.893Z,17.8
2017-07-23T02:37:45.857Z,17.86
2017-07-23T02:38:55.824Z,17.91
2017-07-23T02:40:06.103Z,17.9
2017-07-23T02:41:16.652Z,17.93
2017-07-23T02:42:26.950Z,17.88
2017-07-23T02:43:37.249Z,17.91
2017-07-23T02:44:47.240Z,17.91
2017-07-23T02:45:57.505Z,17.94
2017-07-23T02:47:07.717Z,17.87
2017-07-23T02:48:17.996Z,17.86
2017-07-23T02:49:28.266Z,17.86
2017-07-23T02:50:38.237Z,17.86
2017-07-23T02:51:48.526Z,17.93
2017-07-23T02:52:58.758Z,17.93
2017-07-23T02:54:09.039Z,17.84
2017-07-23T02:55:19.003Z,17.87
2017-07-23T02:56:29.291Z,17.84
2017-07-23T02:57:38.955Z,17.95
2017-07-23T02:58:49.686Z,17.84
2017-07-23T02:59:59.963Z,17.87
2017-07-23T03:01:09.636Z,17.86
2017-07-23T03:02:19.914Z,17.84
2017-07-23T03:03:29.879Z,17.87
2017-07-23T03:04:40.420Z,17.75
2017-07-23T03:05:50.710Z,17.76
2017-07-23T03:07:00.988Z,17.72
2017-07-23T03:08:10.946Z,17.63
2017-07-23T03:09:21.239Z,17.63
2017-07-23T03:10:31.774Z,17.72
2017-07-23T03:11:42.067Z,17.69
2017-07-23T03:12:52.347Z,17.78
2017-07-23T03:14:02.627Z,17.75
2017-07-23T03:15:12.904Z,17.84
2017-07-23T03:16:23.424Z,17.84
2017-07-23T03:17:33.395Z,17.9
2017-07-23T03:18:43.681Z,17.88
2017-07-23T03:19:53.966Z,17.86
2017-07-23T03:21:04.234Z,17.86
2017-07-23T03:22:14.775Z,17.87
2017-07-23T03:23:25.071Z,17.8
2017-07-23T03:24:35.362Z,17.78
2017-07-23T03:25:45.649Z,17.78
2017-07-23T03:26:55.619Z,17.79
2017-07-23T03:28:06.207Z,17.75
2017-07-23T03:29:16.193Z,17.72
2017-07-23T03:30:26.477Z,17.78
2017-07-23T03:31:36.802Z,17.76
2017-07-23T03:32:47.103Z,17.79
2017-07-23T03:33:57.629Z,17.75
2017-07-23T03:35:07.916Z,17.76
2017-07-23T03:36:18.216Z,17.75
2017-07-23T03:37:27.573Z,17.86
2017-07-23T03:38:37.857Z,17.9
2017-07-23T03:39:48.373Z,17.8
2017-07-23T03:40:58.636Z,17.8
2017-07-23T03:42:08.921Z,17.8
2017-07-23T03:43:19.189Z,17.75
2017-07-23T03:44:29.150Z,17.8
2017-07-23T03:45:39.664Z,17.71
2017-07-23T03:46:49.644Z,17.73
2017-07-23T03:47:59.946Z,17.76
2017-07-23T03:49:09.597Z,17.72
2017-07-23T03:50:19.575Z,17.75
2017-07-23T03:51:29.780Z,17.76
2017-07-23T03:52:40.055Z,17.79
2017-07-23T03:53:50.331Z,17.76
2017-07-23T03:55:00.597Z,17.76
2017-07-23T03:56:10.873Z,17.82
2017-07-23T03:57:21.086Z,17.8
2017-07-23T03:58:31.046Z,17.71
2017-07-23T03:59:41.330Z,17.78
2017-07-23T04:00:51.611Z,17.8
2017-07-23T04:02:01.599Z,17.69
2017-07-23T04:03:12.132Z,17.71
2017-07-23T04:04:22.093Z,17.79
2017-07-23T04:05:32.384Z,17.75
2017-07-23T04:06:42.351Z,17.88
2017-07-23T04:07:52.626Z,17.76
2017-07-23T04:09:02.849Z,17.79
2017-07-23T04:10:12.817Z,17.79
2017-07-23T04:11:23.095Z,17.72
2017-07-23T04:12:33.373Z,17.71
2017-07-23T04:13:43.660Z,17.78
2017-07-23T04:14:53.566Z,17.8
2017-07-23T04:16:03.835Z,17.86
2017-07-23T04:17:13.801Z,17.86
2017-07-23T04:18:24.075Z,17.86
2017-07-23T04:19:33.740Z,17.9
2017-07-23T04:20:44.260Z,17.84
2017-07-23T04:21:54.531Z,17.88
2017-07-23T04:23:04.850Z,17.86
2017-07-23T04:24:14.509Z,17.9
2017-07-23T04:25:24.476Z,17.86
2017-07-23T04:26:34.990Z,17.94
2017-07-23T04:27:44.948Z,17.88
2017-07-23T04:28:54.920Z,17.86
2017-07-23T04:30:05.199Z,17.82
2017-07-23T04:31:15.471Z,17.73
2017-07-23T04:32:25.379Z,17.71
2017-07-23T04:33:35.037Z,17.76
2017-07-23T04:34:44.998Z,17.71
2017-07-23T04:35:54.650Z,17.75
2017-07-23T04:37:04.608Z,17.76
2017-07-23T04:38:14.509Z,17.78
2017-07-23T04:39:24.476Z,17.72
2017-07-23T04:40:34.442Z,17.76
2017-07-23T04:41:44.720Z,17.76
2017-07-23T04:42:54.700Z,17.84
2017-07-23T04:44:04.690Z,17.84
2017-07-23T04:45:14.962Z,17.79
2017-07-23T04:46:25.216Z,17.8
2017-07-23T04:47:35.482Z,17.88
2017-07-23T04:48:45.758Z,17.84
2017-07-23T04:49:56.356Z,17.91
2017-07-23T04:51:06.639Z,17.94
2017-07-23T04:52:16.913Z,17.95
2017-07-23T04:53:27.186Z,17.94
2017-07-23T04:54:37.153Z,17.82
2017-07-23T04:55:47.688Z,17.78
2017-07-23T04:56:57.666Z,17.69
2017-07-23T04:58:07.961Z,17.76
2017-07-23T04:59:17.924Z,17.75
2017-07-23T05:00:28.197Z,17.78
2017-07-23T05:01:37.787Z,17.72
2017-07-23T05:02:48.067Z,17.68
2017-07-23T05:03:58.125Z,17.59
2017-07-23T05:05:08.394Z,17.65
2017-07-23T05:06:18.681Z,17.75
2017-07-23T05:07:28.884Z,17.79
2017-07-23T05:08:38.857Z,17.76
2017-07-23T05:09:49.126Z,17.78
2017-07-23T05:10:59.415Z,17.79
2017-07-23T05:12:09.688Z,17.78
2017-07-23T05:13:20.220Z,17.79
2017-07-23T05:14:29.888Z,17.87
2017-07-23T05:15:40.167Z,17.84
2017-07-23T05:16:50.459Z,17.9
2017-07-23T05:18:00.436Z,17.93
2017-07-23T05:19:10.960Z,17.94
2017-07-23T05:20:20.921Z,17.97
2017-07-23T05:21:30.901Z,17.97
2017-07-23T05:22:41.172Z,18.05
2017-07-23T05:23:51.460Z,18.08
2017-07-23T05:25:01.674Z,18.11
2017-07-23T05:26:11.990Z,18.12
2017-07-23T05:27:22.265Z,18.13
2017-07-23T05:28:32.537Z,18.12
2017-07-23T05:29:42.839Z,18.05
2017-07-23T05:30:53.382Z,18.09
2017-07-23T05:32:03.055Z,18.09
2017-07-23T05:33:13.336Z,18.23
2017-07-23T05:34:23.635Z,18.27
2017-07-23T05:35:33.600Z,18.31
2017-07-23T05:36:43.827Z,18.37
2017-07-23T05:37:54.113Z,18.34
2017-07-23T05:39:04.401Z,18.33
2017-07-23T05:40:14.700Z,18.33
2017-07-23T05:41:24.678Z,18.37
2017-07-23T05:42:35.217Z,18.39
2017-07-23T05:43:45.501Z,18.45
2017-07-23T05:44:55.779Z,18.36
2017-07-23T05:46:05.130Z,18.42
2017-07-23T05:47:15.415Z,18.53
2017-07-23T05:48:25.636Z,18.46
2017-07-23T05:49:35.930Z,18.51
2017-07-23T05:50:46.226Z,18.57
2017-07-23T05:51:56.506Z,18.46
2017-07-23T05:53:06.480Z,18.55
2017-07-23T05:54:17.020Z,18.6
2017-07-23T05:55:27.310Z,18.61
2017-07-23T05:56:37.426Z,18.66
2017-07-23T05:57:47.384Z,18.85
2017-07-23T05:58:57.648Z,18.86
2017-07-23T06:00:08.176Z,18.83
2017-07-23T06:01:18.472Z,18.85
2017-07-23T06:02:28.741Z,19
2017-07-23T06:03:38.715Z,19.05
2017-07-23T06:04:48.685Z,19.17
2017-07-23T06:05:58.891Z,19.27
2017-07-23T06:07:09.169Z,19.35
2017-07-23T06:08:19.138Z,19.39
2017-07-23T06:09:29.409Z,19.38
2017-07-23T06:10:39.694Z,19.55
2017-07-23T06:11:50.237Z,19.72
2017-07-23T06:13:00.504Z,19.81
2017-07-23T06:14:10.457Z,19.75
2017-07-23T06:15:20.428Z,19.66
2017-07-23T06:16:30.392Z,19.56
2017-07-23T06:17:40.940Z,19.2
2017-07-23T06:18:51.216Z,19.08
2017-07-23T06:20:01.490Z,18.89
2017-07-23T06:21:11.460Z,18.85
2017-07-23T06:22:21.761Z,18.71
2017-07-23T06:23:32.046Z,18.64
2017-07-23T06:24:42.322Z,18.57
2017-07-23T06:25:52.593Z,18.52
2017-07-23T06:27:02.872Z,18.52
2017-07-23T06:28:13.206Z,18.51
2017-07-23T06:29:23.421Z,18.49
2017-07-23T06:30:33.078Z,18.6
2017-07-23T06:31:43.053Z,18.57
2017-07-23T06:32:53.339Z,18.55
2017-07-23T06:34:03.628Z,18.52
2017-07-23T06:35:14.164Z,18.49
2017-07-23T06:36:24.438Z,18.53
2017-07-23T06:37:33.800Z,18.57
2017-07-23T06:38:43.767Z,18.6
2017-07-23T06:39:54.066Z,18.58
2017-07-23T06:41:04.587Z,18.58
2017-07-23T06:42:14.854Z,18.67
2017-07-23T06:43:24.810Z,18.66
2017-07-23T06:44:35.085Z,18.78
2017-07-23T06:45:45.355Z,18.92
2017-07-23T06:46:55.270Z,18.89
2017-07-23T06:48:04.934Z,18.86
2017-07-23T06:49:15.228Z,18.83
2017-07-23T06:50:25.505Z,18.88
2017-07-23T06:51:35.777Z,18.82
2017-07-23T06:52:46.308Z,18.85
2017-07-23T06:53:56.288Z,18.67
2017-07-23T06:55:06.579Z,18.52
2017-07-23T06:56:16.866Z,18.37
2017-07-23T06:57:26.831Z,18.41
2017-07-23T06:58:37.365Z,18.27
2017-07-23T06:59:47.646Z,18.23
2017-07-23T07:00:57.936Z,18.27
2017-07-23T07:02:07.921Z,18.19
2017-07-23T07:03:17.895Z,18.11
2017-07-23T07:04:27.809Z,18.13
2017-07-23T07:05:38.094Z,18.15
2017-07-23T07:06:48.079Z,18.13
2017-07-23T07:07:57.743Z,18.12
2017-07-23T07:09:08.045Z,18.23
2017-07-23T07:10:18.587Z,18.11
2017-07-23T07:11:28.562Z,18.18
2017-07-23T07:12:38.871Z,18.24
2017-07-23T07:13:49.162Z,18.19
2017-07-23T07:14:59.116Z,18.23
2017-07-23T07:16:09.660Z,18.21
2017-07-23T07:17:19.932Z,18.23
2017-07-23T07:18:30.219Z,18.26
2017-07-23T07:19:40.504Z,18.28
2017-07-23T07:20:50.466Z,18.37
2017-07-23T07:22:00.694Z,18.37
2017-07-23T07:23:10.666Z,18.39
2017-07-23T07:24:20.636Z,18.36
2017-07-23T07:25:30.600Z,18.33
2017-07-23T07:26:40.886Z,18.24
2017-07-23T07:27:51.407Z,18.39
2017-07-23T07:29:01.666Z,18.49
2017-07-23T07:30:11.935Z,18.48
2017-07-23T07:31:21.892Z,18.43
2017-07-23T07:32:31.863Z,18.41
2017-07-23T07:33:42.079Z,18.42
2017-07-23T07:34:52.359Z,18.41
2017-07-23T07:36:02.346Z,18.48
2017-07-23T07:37:12.652Z,18.49
2017-07-23T07:38:22.612Z,18.48
2017-07-23T07:39:33.169Z,18.57
2017-07-23T07:40:43.146Z,18.51
2017-07-23T07:41:53.429Z,18.55
2017-07-23T07:43:03.690Z,18.52
2017-07-23T07:44:13.970Z,18.63
2017-07-23T07:45:24.497Z,18.71
2017-07-23T07:46:34.464Z,18.67
2017-07-23T07:47:44.442Z,18.7
2017-07-23T07:48:54.400Z,18.78
2017-07-23T07:50:04.055Z,18.85
2017-07-23T07:51:14.575Z,18.85
2017-07-23T07:52:24.884Z,18.88
2017-07-23T07:53:34.848Z,18.74
2017-07-23T07:54:44.815Z,18.83
2017-07-23T07:55:55.086Z,18.94
2017-07-23T07:57:05.617Z,19
2017-07-23T07:58:15.583Z,19.08
2017-07-23T07:59:25.563Z,19.01
2017-07-23T08:00:35.529Z,19.19
2017-07-23T08:01:45.823Z,19.2
2017-07-23T08:02:56.357Z,19.22
2017-07-23T08:04:06.007Z,19.24
2017-07-23T08:05:15.668Z,19.29
2017-07-23T08:06:25.984Z,19.26
2017-07-23T08:07:36.277Z,19.38
2017-07-23T08:08:46.805Z,19.34
2017-07-23T08:09:57.087Z,19.32
2017-07-23T08:11:06.767Z,19.32
2017-07-23T08:12:17.047Z,19.29
2017-07-23T08:13:27.026Z,19.3
2017-07-23T08:14:37.249Z,19.23
2017-07-23T08:15:47.562Z,19.2
2017-07-23T08:16:57.847Z,19.19
2017-07-23T08:18:08.135Z,19.22
2017-07-23T08:19:18.104Z,19.15
2017-07-23T08:20:28.639Z,19.17
2017-07-23T08:21:38.928Z,19.07
2017-07-23T08:22:48.911Z,19
2017-07-23T08:23:59.227Z,19.09
2017-07-23T08:25:09.524Z,19.05
2017-07-23T08:26:19.741Z,19.19
2017-07-23T08:27:30.008Z,19.15
2017-07-23T08:28:39.694Z,19.17
2017-07-23T08:29:49.689Z,19.2
2017-07-23T08:30:59.975Z,19.22
2017-07-23T08:32:10.183Z,19.17
2017-07-23T08:33:20.474Z,19.3
2017-07-23T08:34:30.752Z,19.32
2017-07-23T08:35:40.727Z,19.35
2017-07-23T08:36:50.677Z,19.39
2017-07-23T08:38:01.190Z,19.37
2017-07-23T08:39:11.492Z,19.34
2017-07-23T08:40:21.781Z,19.42
2017-07-23T08:41:32.066Z,19.39
2017-07-23T08:42:42.043Z,19.41
2017-07-23T08:43:52.590Z,19.49
2017-07-23T08:45:02.893Z,19.44
2017-07-23T08:46:12.853Z,19.48
2017-07-23T08:47:23.160Z,19.42
2017-07-23T08:48:32.832Z,19.41
2017-07-23T08:49:43.098Z,19.37
2017-07-23T08:50:53.059Z,19.42
2017-07-23T08:52:03.338Z,19.34
2017-07-23T08:53:13.643Z,19.39
2017-07-23T08:54:24.159Z,19.48
2017-07-23T08:55:34.445Z,19.35
2017-07-23T08:56:44.722Z,19.35
2017-07-23T08:57:54.372Z,19.39
2017-07-23T08:59:04.662Z,19.49
2017-07-23T09:00:14.965Z,19.52
2017-07-23T09:01:25.489Z,19.42
2017-07-23T09:02:35.483Z,19.44
2017-07-23T09:03:45.771Z,19.38
2017-07-23T09:04:56.030Z,19.55
2017-07-23T09:06:06.000Z,19.55
2017-07-23T09:07:16.237Z,19.41
2017-07-23T09:08:26.525Z,19.45
2017-07-23T09:09:36.830Z,19.42
2017-07-23T09:10:46.807Z,19.53
2017-07-23T09:11:56.795Z,19.6
2017-07-23T09:13:07.321Z,19.63
2017-07-23T09:14:17.308Z,19.66
2017-07-23T09:15:27.304Z,19.72
2017-07-23T09:16:37.302Z,19.78
2017-07-23T09:17:47.258Z,19.77
2017-07-23T09:18:57.485Z,19.82
2017-07-23T09:20:07.774Z,19.87
2017-07-23T09:21:17.747Z,19.93
2017-07-23T09:22:27.726Z,19.94
2017-07-23T09:23:38.040Z,20.02
2017-07-23T09:24:48.636Z,19.96
2017-07-23T09:25:58.606Z,19.99
2017-07-23T09:27:08.897Z,19.94
2017-07-23T09:28:19.175Z,19.92
2017-07-23T09:29:29.458Z,20.08
2017-07-23T09:30:39.702Z,20.08
2017-07-23T09:31:49.680Z,20.08
2017-07-23T09:32:59.985Z,20.04
2017-07-23T09:34:10.305Z,20.12
2017-07-23T09:35:20.594Z,20.04
2017-07-23T09:36:30.814Z,20
2017-07-23T09:37:41.103Z,19.92
2017-07-23T09:38:51.395Z,19.84
2017-07-23T09:40:01.702Z,19.85
2017-07-23T09:41:11.989Z,19.87
2017-07-23T09:42:22.216Z,19.99
2017-07-23T09:43:32.496Z,19.97
2017-07-23T09:44:42.469Z,20.14
2017-07-23T09:45:52.449Z,20.02
2017-07-23T09:47:02.758Z,20.12
2017-07-23T09:48:13.285Z,20.14
2017-07-23T09:49:23.252Z,20.24
2017-07-23T09:50:33.550Z,20.26
2017-07-23T09:51:43.832Z,20.29
2017-07-23T09:52:54.135Z,20.52
2017-07-23T09:54:04.688Z,20.52
2017-07-23T09:55:14.981Z,20.44
2017-07-23T09:56:24.638Z,20.48
2017-07-23T09:57:34.616Z,20.39
2017-07-23T09:58:44.576Z,20.32
2017-07-23T09:59:55.113Z,20.29
2017-07-23T10:01:05.415Z,20.44
2017-07-23T10:02:15.693Z,20.55
2017-07-23T10:03:25.977Z,20.53
2017-07-23T10:04:36.266Z,20.5
2017-07-23T10:05:46.529Z,20.39
2017-07-23T10:06:56.817Z,20.53
2017-07-23T10:08:07.120Z,20.52
2017-07-23T10:09:16.786Z,20.56
2017-07-23T10:10:27.083Z,20.59
2017-07-23T10:11:37.637Z,20.75
2017-07-23T10:12:47.933Z,20.85
2017-07-23T10:13:58.231Z,20.98
2017-07-23T10:15:08.210Z,20.88
2017-07-23T10:16:18.489Z,20.86
2017-07-23T10:17:28.996Z,20.85
2017-07-23T10:18:39.038Z,20.88
2017-07-23T10:19:49.333Z,20.88
2017-07-23T10:20:59.309Z,20.92
2017-07-23T10:22:08.962Z,20.95
2017-07-23T10:23:18.933Z,20.92
2017-07-23T10:24:29.216Z,20.98
2017-07-23T10:25:39.195Z,21.11
2017-07-23T10:26:49.182Z,21.1
2017-07-23T10:27:58.850Z,21.15
2017-07-23T10:29:09.392Z,21.1
2017-07-23T10:30:19.826Z,21.14
2017-07-23T10:31:29.807Z,21.19
2017-07-23T10:32:39.485Z,21.17
2017-07-23T10:33:49.777Z,21.11
2017-07-23T10:35:00.310Z,21.25
2017-07-23T10:36:10.322Z,21.3
2017-07-23T10:37:20.304Z,21.4
2017-07-23T10:38:30.597Z,21.43
2017-07-23T10:39:40.874Z,21.35
2017-07-23T10:40:51.091Z,21.2
2017-07-23T10:42:01.371Z,21.15
2017-07-23T10:43:11.649Z,21.07
2017-07-23T10:44:21.655Z,21.03
2017-07-23T10:45:31.935Z,21.05
2017-07-23T10:46:42.487Z,21.11
2017-07-23T10:47:52.137Z,21.11
2017-07-23T10:49:02.444Z,21.22
2017-07-23T10:50:12.431Z,21.28
2017-07-23T10:51:22.711Z,21.37
2017-07-23T10:52:32.943Z,21.62
2017-07-23T10:53:42.948Z,21.75
2017-07-23T10:54:53.249Z,22.06
2017-07-23T10:56:03.556Z,22.31
2017-07-23T10:57:13.849Z,22.37
2017-07-23T10:58:24.081Z,22.62
2017-07-23T10:59:34.068Z,22.8
2017-07-23T11:00:44.054Z,22.73
2017-07-23T11:01:54.044Z,22.7
2017-07-23T11:03:04.346Z,22.71
2017-07-23T11:04:14.572Z,22.74
2017-07-23T11:05:24.559Z,22.84
2017-07-23T11:06:34.881Z,22.96
2017-07-23T11:07:44.872Z,23.02
2017-07-23T11:08:55.166Z,23.21
2017-07-23T11:10:05.726Z,23.49
2017-07-23T11:11:16.021Z,23.73
2017-07-23T11:12:26.308Z,23.85
2017-07-23T11:13:36.599Z,24
2017-07-23T11:14:46.898Z,24.14
2017-07-23T11:15:57.450Z,24.07
2017-07-23T11:17:07.752Z,23.89
2017-07-23T11:18:18.049Z,23.64
2017-07-23T11:19:28.033Z,23.47
2017-07-23T11:20:38.338Z,23.36
2017-07-23T11:21:48.872Z,23.28
2017-07-23T11:22:59.174Z,23.28
2017-07-23T11:24:09.464Z,23.21
2017-07-23T11:25:19.434Z,23.26
2017-07-23T11:26:29.734Z,23.29
2017-07-23T11:27:39.719Z,23.29
2017-07-23T11:28:50.012Z,23.39
2017-07-23T11:30:00.331Z,23.26
2017-07-23T11:31:10.028Z,23.33
2017-07-23T11:32:20.338Z,23.37
2017-07-23T11:33:30.573Z,23.37
2017-07-23T11:34:40.237Z,23.45
2017-07-23T11:35:50.548Z,23.4
2017-07-23T11:37:00.823Z,23.33
2017-07-23T11:38:11.120Z,23.25
2017-07-23T11:39:21.355Z,23.28
2017-07-23T11:40:31.663Z,23.28
2017-07-23T11:41:41.947Z,23.45
2017-07-23T11:42:51.914Z,23.47
2017-07-23T11:44:01.588Z,23.52
2017-07-23T11:45:12.130Z,23.62
2017-07-23T11:46:22.419Z,23.54
2017-07-23T11:47:32.402Z,23.64
2017-07-23T11:48:42.689Z,23.54
2017-07-23T11:49:52.667Z,23.69
2017-07-23T11:51:03.196Z,23.88
2017-07-23T11:52:13.489Z,23.82
2017-07-23T11:53:23.773Z,24.01
2017-07-23T11:54:33.760Z,24.04
2017-07-23T11:55:44.049Z,24.21
2017-07-23T11:56:54.600Z,24.07
2017-07-23T11:58:04.895Z,24.1
2017-07-23T11:59:15.201Z,24.24
2017-07-23T12:00:25.180Z,24.28
2017-07-23T12:01:35.504Z,24.47
2017-07-23T12:02:46.051Z,24.75
2017-07-23T12:03:56.381Z,24.92
2017-07-23T12:05:06.898Z,25.06
2017-07-23T12:06:17.205Z,24.94
2017-07-23T12:07:27.481Z,25
2017-07-23T12:08:37.708Z,24.86
2017-07-23T12:09:47.987Z,24.88
2017-07-23T12:10:57.998Z,24.89
2017-07-23T12:12:07.972Z,24.84
2017-07-23T12:13:17.966Z,24.93
2017-07-23T12:14:28.527Z,24.86
2017-07-23T12:15:38.810Z,25.07
2017-07-23T12:16:49.103Z,24.97
2017-07-23T12:17:59.090Z,25.12
2017-07-23T12:19:09.384Z,25.09
2017-07-23T12:20:19.991Z,25.03
2017-07-23T12:21:30.303Z,24.92
2017-07-23T12:22:39.960Z,24.92
2017-07-23T12:23:50.249Z,25.12
2017-07-23T12:25:00.552Z,25.39
2017-07-23T12:26:11.081Z,25.4
2017-07-23T12:27:21.081Z,25.77
2017-07-23T12:28:31.366Z,26.07
2017-07-23T12:29:41.679Z,25.76
2017-07-23T12:30:51.978Z,25.66
2017-07-23T12:32:02.527Z,25.61
2017-07-23T12:33:12.814Z,25.49
2017-07-23T12:34:23.114Z,25.7
2017-07-23T12:35:33.406Z,25.61
2017-07-23T12:36:43.688Z,25.74
2017-07-23T12:37:54.214Z,25.76
2017-07-23T12:39:03.898Z,25.59
2017-07-23T12:40:14.194Z,25.31
2017-07-23T12:41:24.489Z,25.26
2017-07-23T12:42:34.803Z,25.18
2017-07-23T12:43:45.339Z,24.88
2017-07-23T12:44:55.624Z,24.55
2017-07-23T12:46:05.939Z,24.26
2017-07-23T12:47:16.226Z,24.16
2017-07-23T12:48:26.226Z,24.19
2017-07-23T12:49:36.752Z,24.28
2017-07-23T12:50:46.435Z,24.46
2017-07-23T12:51:56.729Z,24.68
2017-07-23T12:53:06.705Z,24.69
2017-07-23T12:54:17.024Z,24.77
2017-07-23T12:55:27.587Z,24.88
2017-07-23T12:56:37.915Z,25.06
2017-07-23T12:57:47.904Z,25.22
2017-07-23T12:58:58.186Z,25.31
2017-07-23T13:00:08.479Z,25.4
2017-07-23T13:01:18.736Z,25.39
2017-07-23T13:02:29.043Z,25.43
2017-07-23T13:03:39.327Z,25.4
2017-07-23T13:04:49.623Z,25.43
2017-07-23T13:05:59.931Z,25.3
2017-07-23T13:07:10.479Z,25.39
2017-07-23T13:08:20.439Z,25.41
2017-07-23T13:09:30.413Z,25.39
2017-07-23T13:10:40.720Z,25.37
2017-07-23T13:11:51.014Z,25.22
2017-07-23T13:13:01.616Z,25.29
2017-07-23T13:14:11.901Z,25.33
2017-07-23T13:15:22.188Z,25.46
2017-07-23T13:16:32.163Z,25.24
2017-07-23T13:17:42.149Z,25.21
2017-07-23T13:18:52.699Z,25.06
2017-07-23T13:20:02.687Z,25.07
2017-07-23T13:21:12.988Z,25.09
2017-07-23T13:22:22.973Z,25.34
2017-07-23T13:23:33.258Z,25.44
2017-07-23T13:24:43.813Z,25.63
2017-07-23T13:25:54.129Z,25.76
2017-07-23T13:27:04.427Z,25.78
2017-07-23T13:28:14.720Z,25.93
2017-07-23T13:29:24.698Z,26.06
2017-07-23T13:30:34.940Z,26.39
2017-07-23T13:31:45.223Z,26.6
2017-07-23T13:32:55.205Z,26.59
2017-07-23T13:34:05.186Z,26.61
2017-07-23T13:35:14.870Z,26.61
2017-07-23T13:36:25.437Z,26.63
2017-07-23T13:37:35.411Z,26.49
2017-07-23T13:38:45.702Z,26.11
2017-07-23T13:39:55.985Z,25.89
2017-07-23T13:41:05.333Z,25.98
2017-07-23T13:42:15.865Z,26.06
2017-07-23T13:43:25.525Z,25.91
2017-07-23T13:44:35.829Z,26.01
2017-07-23T13:45:46.128Z,26.31
2017-07-23T13:46:55.802Z,26.52
2017-07-23T13:48:06.327Z,26.66
2017-07-23T13:49:16.002Z,26.83
2017-07-23T13:50:26.299Z,27.19
2017-07-23T13:51:36.596Z,27.34
2017-07-23T13:52:46.894Z,27.37
2017-07-23T13:53:57.501Z,27.57
2017-07-23T13:55:07.811Z,27.57
2017-07-23T13:56:18.084Z,27.57
2017-07-23T13:57:28.083Z,27.6
2017-07-23T13:58:37.754Z,27.57
2017-07-23T13:59:48.301Z,27.34
2017-07-23T14:00:58.584Z,27.29
2017-07-23T14:02:08.889Z,27.43
2017-07-23T14:03:19.165Z,27.28
2017-07-23T14:04:29.149Z,27
2017-07-23T14:05:39.700Z,26.73
2017-07-23T14:06:49.696Z,26.39
2017-07-23T14:07:59.972Z,26.24
2017-07-23T14:09:10.260Z,26.06
2017-07-23T14:10:20.251Z,26.03
2017-07-23T14:11:30.476Z,25.78
2017-07-23T14:12:40.768Z,25.49
2017-07-23T14:13:50.752Z,25.04
2017-07-23T14:15:01.032Z,24.69
2017-07-23T14:16:11.328Z,24.51
2017-07-23T14:17:21.953Z,24.55
2017-07-23T14:18:31.620Z,24.43
2017-07-23T14:19:41.929Z,24.5
2017-07-23T14:20:51.907Z,24.5
2017-07-23T14:22:02.197Z,24.53
2017-07-23T14:23:12.428Z,24.47
2017-07-23T14:24:22.712Z,24.29
2017-07-23T14:25:33.007Z,24.37
2017-07-23T14:26:42.982Z,24.47
2017-07-23T14:27:53.276Z,24.31
2017-07-23T14:29:03.804Z,24.16
2017-07-23T14:30:14.089Z,24.14
2017-07-23T14:31:24.063Z,24.06
2017-07-23T14:32:34.031Z,24.04
2017-07-23T14:33:44.314Z,24.07
2017-07-23T14:34:54.539Z,24.03
2017-07-23T14:36:05.057Z,23.96
2017-07-23T14:37:15.346Z,23.95
2017-07-23T14:38:25.659Z,23.82
2017-07-23T14:39:35.932Z,23.55
2017-07-23T14:40:46.476Z,23.47
2017-07-23T14:41:56.769Z,23.32
2017-07-23T14:43:05.812Z,23.32
2017-07-23T14:44:16.111Z,23.33
2017-07-23T14:45:26.398Z,23.37
2017-07-23T14:46:36.364Z,23.56
2017-07-23T14:47:46.658Z,23.85
2017-07-23T14:48:56.955Z,24.13
2017-07-23T14:50:07.237Z,24.36
2017-07-23T14:51:17.203Z,24.37
2017-07-23T14:52:27.428Z,24.31
2017-07-23T14:53:37.405Z,24.26
2017-07-23T14:54:47.387Z,24.22
2017-07-23T14:55:57.367Z,24.11
2017-07-23T14:57:07.345Z,24.16
2017-07-23T14:58:17.252Z,24.07
2017-07-23T14:59:26.921Z,24.01
2017-07-23T15:00:37.230Z,23.96
2017-07-23T15:01:47.230Z,24
2017-07-23T15:02:57.513Z,24.03
2017-07-23T15:04:07.424Z,23.99
2017-07-23T15:05:17.721Z,23.89
2017-07-23T15:06:27.699Z,23.79
2017-07-23T15:07:37.988Z,23.58